sensor_id;sensor_type;location;lat;lon;timestamp;pressure;altitude;pressure_sealevel;temperature;humidity
46642;BME280;32370;41.864;-88.124;2022-08-19T00:01:44;98755.52;;;26.83;45.58
46642;BME280;32370;41.864;-88.124;2022-08-19T00:04:14;98752.12;;;26.42;45.84
46642;BME280;32370;41.864;-88.124;2022-08-19T00:06:43;98750.89;;;26.31;46.51
46642;BME280;32370;41.864;-88.124;2022-08-19T00:09:15;98751.07;;;26.14;46.30
46642;BME280;32370;41.864;-88.124;2022-08-19T00:11:44;98751.82;;;26.36;46.43
46642;BME280;32370;41.864;-88.124;2022-08-19T00:14:14;98748.39;;;25.99;46.74
46642;BME280;32370;41.864;-88.124;2022-08-19T00:16:46;98749.07;;;25.98;47.03
46642;BME280;32370;41.864;-88.124;2022-08-19T00:19:14;98748.04;;;25.83;47.26
46642;BME280;32370;41.864;-88.124;2022-08-19T00:21:42;98750.74;;;25.68;47.36
46642;BME280;32370;41.864;-88.124;2022-08-19T00:24:12;98750.42;;;25.54;47.55
46642;BME280;32370;41.864;-88.124;2022-08-19T00:26:41;98745.27;;;25.44;47.16
46642;BME280;32370;41.864;-88.124;2022-08-19T00:29:11;98740.50;;;25.46;47.44
46642;BME280;32370;41.864;-88.124;2022-08-19T00:31:40;98742.78;;;25.52;47.22
46642;BME280;32370;41.864;-88.124;2022-08-19T00:34:08;98741.86;;;25.52;47.11
46642;BME280;32370;41.864;-88.124;2022-08-19T00:36:35;98740.36;;;25.44;47.28
46642;BME280;32370;41.864;-88.124;2022-08-19T00:39:04;98741.87;;;25.61;47.49
46642;BME280;32370;41.864;-88.124;2022-08-19T00:41:32;98742.05;;;25.49;47.46
46642;BME280;32370;41.864;-88.124;2022-08-19T00:44:02;98745.75;;;25.24;47.94
46642;BME280;32370;41.864;-88.124;2022-08-19T00:46:33;98745.99;;;25.21;47.97
46642;BME280;32370;41.864;-88.124;2022-08-19T00:49:05;98750.79;;;25.65;47.94
46642;BME280;32370;41.864;-88.124;2022-08-19T00:51:34;98746.57;;;25.26;47.89
46642;BME280;32370;41.864;-88.124;2022-08-19T00:54:02;98746.94;;;25.01;48.50
46642;BME280;32370;41.864;-88.124;2022-08-19T00:56:31;98741.92;;;25.42;48.48
46642;BME280;32370;41.864;-88.124;2022-08-19T00:59:00;98738.49;;;25.32;48.58
46642;BME280;32370;41.864;-88.124;2022-08-19T01:01:28;98738.97;;;25.23;48.73
46642;BME280;32370;41.864;-88.124;2022-08-19T01:03:56;98736.23;;;25.21;48.76
46642;BME280;32370;41.864;-88.124;2022-08-19T01:06:24;98739.84;;;24.97;49.42
46642;BME280;32370;41.864;-88.124;2022-08-19T01:08:54;98738.88;;;24.79;49.70
46642;BME280;32370;41.864;-88.124;2022-08-19T01:11:21;98739.88;;;24.45;49.95
46642;BME280;32370;41.864;-88.124;2022-08-19T01:13:50;98736.57;;;24.73;49.85
46642;BME280;32370;41.864;-88.124;2022-08-19T01:16:22;98738.63;;;24.65;50.10
46642;BME280;32370;41.864;-88.124;2022-08-19T01:18:52;98740.25;;;24.13;51.57
46642;BME280;32370;41.864;-88.124;2022-08-19T01:21:24;98740.16;;;24.10;51.40
46642;BME280;32370;41.864;-88.124;2022-08-19T01:23:54;98739.93;;;24.45;51.16
46642;BME280;32370;41.864;-88.124;2022-08-19T01:26:23;98737.23;;;24.31;51.02
46642;BME280;32370;41.864;-88.124;2022-08-19T01:28:56;98737.89;;;24.61;51.33
46642;BME280;32370;41.864;-88.124;2022-08-19T01:31:26;98743.05;;;24.21;51.83
46642;BME280;32370;41.864;-88.124;2022-08-19T01:33:56;98744.82;;;24.04;51.80
46642;BME280;32370;41.864;-88.124;2022-08-19T01:36:28;98748.06;;;24.13;52.16
46642;BME280;32370;41.864;-88.124;2022-08-19T01:38:58;98748.88;;;24.08;52.71
46642;BME280;32370;41.864;-88.124;2022-08-19T01:41:26;98748.44;;;23.79;52.85
46642;BME280;32370;41.864;-88.124;2022-08-19T01:43:54;98746.56;;;23.77;53.12
46642;BME280;32370;41.864;-88.124;2022-08-19T01:46:22;98743.75;;;23.75;53.57
46642;BME280;32370;41.864;-88.124;2022-08-19T01:48:50;98739.80;;;23.61;53.88
46642;BME280;32370;41.864;-88.124;2022-08-19T01:51:17;98737.25;;;23.47;54.35
46642;BME280;32370;41.864;-88.124;2022-08-19T01:53:48;98735.10;;;23.35;54.68
46642;BME280;32370;41.864;-88.124;2022-08-19T01:56:17;98735.94;;;23.30;55.01
46642;BME280;32370;41.864;-88.124;2022-08-19T01:58:48;98736.40;;;23.28;55.38
46642;BME280;32370;41.864;-88.124;2022-08-19T02:01:17;98732.64;;;23.54;55.56
46642;BME280;32370;41.864;-88.124;2022-08-19T02:03:46;98733.07;;;23.15;55.99
46642;BME280;32370;41.864;-88.124;2022-08-19T02:06:14;98735.10;;;23.13;56.17
46642;BME280;32370;41.864;-88.124;2022-08-19T02:08:42;98740.95;;;23.21;56.60
46642;BME280;32370;41.864;-88.124;2022-08-19T02:11:20;98740.01;;;22.84;56.84
46642;BME280;32370;41.864;-88.124;2022-08-19T02:13:48;98739.64;;;23.00;57.12
46642;BME280;32370;41.864;-88.124;2022-08-19T02:16:18;98737.85;;;23.02;57.17
46642;BME280;32370;41.864;-88.124;2022-08-19T02:18:46;98734.39;;;23.17;57.39
46642;BME280;32370;41.864;-88.124;2022-08-19T02:21:14;98733.93;;;22.99;57.77
46642;BME280;32370;41.864;-88.124;2022-08-19T02:23:42;98736.88;;;23.00;57.98
46642;BME280;32370;41.864;-88.124;2022-08-19T02:26:10;98735.32;;;22.84;58.34
46642;BME280;32370;41.864;-88.124;2022-08-19T02:28:39;98736.05;;;22.52;58.65
46642;BME280;32370;41.864;-88.124;2022-08-19T02:31:10;98733.83;;;22.74;58.80
46642;BME280;32370;41.864;-88.124;2022-08-19T02:33:38;98736.07;;;22.42;59.13
46642;BME280;32370;41.864;-88.124;2022-08-19T02:36:07;98736.15;;;22.34;59.90
46642;BME280;32370;41.864;-88.124;2022-08-19T02:38:35;98734.26;;;22.22;60.29
46642;BME280;32370;41.864;-88.124;2022-08-19T02:41:06;98727.07;;;22.17;60.45
46642;BME280;32370;41.864;-88.124;2022-08-19T02:43:34;98727.43;;;22.10;60.74
46642;BME280;32370;41.864;-88.124;2022-08-19T02:46:10;98729.79;;;22.12;60.63
46642;BME280;32370;41.864;-88.124;2022-08-19T02:48:38;98733.13;;;22.28;60.26
46642;BME280;32370;41.864;-88.124;2022-08-19T02:51:06;98732.48;;;22.55;60.23
46642;BME280;32370;41.864;-88.124;2022-08-19T02:53:33;98734.96;;;22.13;60.67
46642;BME280;32370;41.864;-88.124;2022-08-19T02:56:01;98737.22;;;22.09;60.81
46642;BME280;32370;41.864;-88.124;2022-08-19T02:58:33;98735.46;;;22.05;61.14
46642;BME280;32370;41.864;-88.124;2022-08-19T03:01:01;98734.70;;;22.30;61.07
46642;BME280;32370;41.864;-88.124;2022-08-19T03:03:29;98734.21;;;22.19;61.33
46642;BME280;32370;41.864;-88.124;2022-08-19T03:06:07;98731.01;;;21.93;61.53
46642;BME280;32370;41.864;-88.124;2022-08-19T03:08:38;98729.16;;;21.85;61.69
46642;BME280;32370;41.864;-88.124;2022-08-19T03:11:06;98728.21;;;21.74;61.91
46642;BME280;32370;41.864;-88.124;2022-08-19T03:13:34;98728.67;;;21.92;62.03
46642;BME280;32370;41.864;-88.124;2022-08-19T03:16:05;98726.05;;;21.80;62.50
46642;BME280;32370;41.864;-88.124;2022-08-19T03:18:33;98724.26;;;21.75;62.79
46642;BME280;32370;41.864;-88.124;2022-08-19T03:21:01;98726.25;;;21.70;62.82
46642;BME280;32370;41.864;-88.124;2022-08-19T03:23:28;98727.97;;;21.65;63.12
46642;BME280;32370;41.864;-88.124;2022-08-19T03:25:56;98730.31;;;21.31;63.60
46642;BME280;32370;41.864;-88.124;2022-08-19T03:28:24;98729.83;;;21.52;63.82
46642;BME280;32370;41.864;-88.124;2022-08-19T03:30:57;98728.89;;;21.55;63.64
46642;BME280;32370;41.864;-88.124;2022-08-19T03:33:28;98728.53;;;21.22;64.19
46642;BME280;32370;41.864;-88.124;2022-08-19T03:36:06;98724.72;;;21.13;64.55
46642;BME280;32370;41.864;-88.124;2022-08-19T03:38:35;98723.62;;;21.69;64.18
46642;BME280;32370;41.864;-88.124;2022-08-19T03:41:06;98723.85;;;21.13;64.37
46642;BME280;32370;41.864;-88.124;2022-08-19T06:21:29;98771.17;;;20.32;78.00
46642;BME280;32370;41.864;-88.124;2022-08-19T06:23:57;98767.49;;;17.51;78.90
46642;BME280;32370;41.864;-88.124;2022-08-19T06:26:25;98774.84;;;17.19;81.43
46642;BME280;32370;41.864;-88.124;2022-08-19T06:28:51;98777.33;;;16.78;81.02
46642;BME280;32370;41.864;-88.124;2022-08-19T06:31:20;98772.25;;;16.84;79.85
46642;BME280;32370;41.864;-88.124;2022-08-19T06:33:48;98773.19;;;16.84;79.35
46642;BME280;32370;41.864;-88.124;2022-08-19T06:36:18;98773.50;;;16.90;79.06
46642;BME280;32370;41.864;-88.124;2022-08-19T06:38:45;98771.92;;;17.06;78.49
46642;BME280;32370;41.864;-88.124;2022-08-19T06:41:12;98768.66;;;16.85;78.15
46642;BME280;32370;41.864;-88.124;2022-08-19T06:43:39;98768.20;;;17.12;77.92
46642;BME280;32370;41.864;-88.124;2022-08-19T06:46:11;98770.40;;;17.03;78.22
46642;BME280;32370;41.864;-88.124;2022-08-19T06:48:38;98768.87;;;16.94;78.75
46642;BME280;32370;41.864;-88.124;2022-08-19T06:51:05;98772.40;;;16.91;79.11
46642;BME280;32370;41.864;-88.124;2022-08-19T06:53:32;98773.54;;;16.87;78.56
46642;BME280;32370;41.864;-88.124;2022-08-19T06:55:59;98774.31;;;17.09;78.41
46642;BME280;32370;41.864;-88.124;2022-08-19T06:58:26;98774.03;;;17.15;77.97
46642;BME280;32370;41.864;-88.124;2022-08-19T07:00:53;98777.71;;;16.89;78.16
46642;BME280;32370;41.864;-88.124;2022-08-19T07:03:20;98775.30;;;17.02;78.33
46642;BME280;32370;41.864;-88.124;2022-08-19T07:05:47;98778.14;;;16.74;78.36
46642;BME280;32370;41.864;-88.124;2022-08-19T07:08:14;98779.12;;;17.15;77.83
46642;BME280;32370;41.864;-88.124;2022-08-19T07:10:43;98780.55;;;17.10;77.71
46642;BME280;32370;41.864;-88.124;2022-08-19T07:13:12;98781.76;;;17.47;77.95
46642;BME280;32370;41.864;-88.124;2022-08-19T07:15:40;98779.29;;;17.78;78.69
46642;BME280;32370;41.864;-88.124;2022-08-19T07:18:07;98777.15;;;18.22;78.73
46642;BME280;32370;41.864;-88.124;2022-08-19T07:20:35;98777.76;;;18.49;78.38
46642;BME280;32370;41.864;-88.124;2022-08-19T07:23:05;98781.27;;;18.37;78.87
46642;BME280;32370;41.864;-88.124;2022-08-19T07:25:32;98784.72;;;18.09;78.89
46642;BME280;32370;41.864;-88.124;2022-08-19T07:28:00;98785.75;;;18.29;79.04
46642;BME280;32370;41.864;-88.124;2022-08-19T07:30:28;98782.83;;;18.20;79.16
46642;BME280;32370;41.864;-88.124;2022-08-19T07:32:56;98780.66;;;18.46;79.11
46642;BME280;32370;41.864;-88.124;2022-08-19T07:35:23;98780.55;;;18.45;78.85
46642;BME280;32370;41.864;-88.124;2022-08-19T07:37:51;98777.27;;;18.38;79.37
46642;BME280;32370;41.864;-88.124;2022-08-19T07:40:19;98778.90;;;18.45;79.22
46642;BME280;32370;41.864;-88.124;2022-08-19T07:42:46;98775.29;;;18.49;79.15
46642;BME280;32370;41.864;-88.124;2022-08-19T07:45:14;98774.85;;;18.24;79.19
46642;BME280;32370;41.864;-88.124;2022-08-19T07:47:42;98772.48;;;18.46;79.30
46642;BME280;32370;41.864;-88.124;2022-08-19T07:50:10;98774.19;;;18.47;79.43
46642;BME280;32370;41.864;-88.124;2022-08-19T07:52:39;98769.18;;;18.29;79.56
46642;BME280;32370;41.864;-88.124;2022-08-19T07:55:09;98767.33;;;18.50;79.81
46642;BME280;32370;41.864;-88.124;2022-08-19T07:57:37;98768.97;;;18.53;79.35
46642;BME280;32370;41.864;-88.124;2022-08-19T08:00:06;98777.20;;;18.32;80.64
46642;BME280;32370;41.864;-88.124;2022-08-19T08:02:34;98780.74;;;17.96;81.98
46642;BME280;32370;41.864;-88.124;2022-08-19T08:05:02;98777.61;;;18.17;81.10
46642;BME280;32370;41.864;-88.124;2022-08-19T08:07:30;98774.84;;;18.23;80.31
46642;BME280;32370;41.864;-88.124;2022-08-19T08:09:58;98774.67;;;18.46;80.51
46642;BME280;32370;41.864;-88.124;2022-08-19T08:12:29;98776.43;;;18.18;80.79
46642;BME280;32370;41.864;-88.124;2022-08-19T08:14:59;98775.76;;;18.15;80.99
46642;BME280;32370;41.864;-88.124;2022-08-19T08:17:29;98777.19;;;18.14;81.25
46642;BME280;32370;41.864;-88.124;2022-08-19T08:19:57;98778.97;;;18.12;81.68
46642;BME280;32370;41.864;-88.124;2022-08-19T08:22:25;98779.21;;;17.95;81.49
46642;BME280;32370;41.864;-88.124;2022-08-19T08:24:53;98780.44;;;18.18;81.43
46642;BME280;32370;41.864;-88.124;2022-08-19T08:27:21;98781.23;;;18.31;81.04
46642;BME280;32370;41.864;-88.124;2022-08-19T08:29:49;98783.10;;;18.28;80.98
46642;BME280;32370;41.864;-88.124;2022-08-19T08:32:16;98787.03;;;18.29;80.97
46642;BME280;32370;41.864;-88.124;2022-08-19T08:34:44;98787.70;;;18.43;80.49
46642;BME280;32370;41.864;-88.124;2022-08-19T08:37:12;98780.95;;;18.41;80.65
46642;BME280;32370;41.864;-88.124;2022-08-19T08:39:40;98777.96;;;18.43;80.53
46642;BME280;32370;41.864;-88.124;2022-08-19T08:42:11;98778.51;;;18.39;80.77
46642;BME280;32370;41.864;-88.124;2022-08-19T08:44:47;98783.70;;;18.36;80.96
46642;BME280;32370;41.864;-88.124;2022-08-19T08:47:19;98787.57;;;18.44;80.73
46642;BME280;32370;41.864;-88.124;2022-08-19T08:49:51;98785.74;;;18.45;80.91
46642;BME280;32370;41.864;-88.124;2022-08-19T08:52:24;98783.67;;;18.60;80.70
46642;BME280;32370;41.864;-88.124;2022-08-19T08:54:58;98778.76;;;18.67;80.46
46642;BME280;32370;41.864;-88.124;2022-08-19T08:57:30;98783.19;;;18.60;80.56
46642;BME280;32370;41.864;-88.124;2022-08-19T09:00:02;98784.94;;;18.69;80.38
46642;BME280;32370;41.864;-88.124;2022-08-19T09:02:31;98784.54;;;18.78;80.10
46642;BME280;32370;41.864;-88.124;2022-08-19T09:04:58;98785.75;;;18.77;80.00
46642;BME280;32370;41.864;-88.124;2022-08-19T09:07:36;98783.31;;;18.82;79.70
46642;BME280;32370;41.864;-88.124;2022-08-19T09:10:14;98783.60;;;18.97;79.28
46642;BME280;32370;41.864;-88.124;2022-08-19T09:12:51;98782.41;;;19.00;79.03
46642;BME280;32370;41.864;-88.124;2022-08-19T09:15:27;98781.59;;;19.00;78.86
46642;BME280;32370;41.864;-88.124;2022-08-19T09:17:59;98785.75;;;19.03;78.57
46642;BME280;32370;41.864;-88.124;2022-08-19T09:20:28;98788.98;;;19.01;78.41
46642;BME280;32370;41.864;-88.124;2022-08-19T09:22:56;98788.60;;;18.84;78.18
46642;BME280;32370;41.864;-88.124;2022-08-19T09:25:25;98786.52;;;19.11;77.86
46642;BME280;32370;41.864;-88.124;2022-08-19T09:27:54;98788.82;;;19.08;77.70
46642;BME280;32370;41.864;-88.124;2022-08-19T09:30:27;98790.61;;;19.23;77.41
46642;BME280;32370;41.864;-88.124;2022-08-19T09:32:56;98792.49;;;18.91;77.24
46642;BME280;32370;41.864;-88.124;2022-08-19T09:35:26;98793.66;;;19.08;77.34
46642;BME280;32370;41.864;-88.124;2022-08-19T09:37:55;98794.07;;;19.09;77.34
46642;BME280;32370;41.864;-88.124;2022-08-19T09:40:23;98795.39;;;18.88;77.21
46642;BME280;32370;41.864;-88.124;2022-08-19T09:42:51;98800.32;;;18.89;77.29
46642;BME280;32370;41.864;-88.124;2022-08-19T09:45:21;98802.14;;;18.89;77.15
46642;BME280;32370;41.864;-88.124;2022-08-19T09:47:50;98799.69;;;19.26;76.73
46642;BME280;32370;41.864;-88.124;2022-08-19T09:50:18;98801.89;;;19.28;76.45
46642;BME280;32370;41.864;-88.124;2022-08-19T09:52:47;98803.66;;;19.06;76.26
46642;BME280;32370;41.864;-88.124;2022-08-19T09:55:15;98805.53;;;19.02;76.18
46642;BME280;32370;41.864;-88.124;2022-08-19T09:57:43;98805.80;;;19.05;75.98
46642;BME280;32370;41.864;-88.124;2022-08-19T10:00:11;98807.04;;;19.25;75.71
46642;BME280;32370;41.864;-88.124;2022-08-19T10:02:39;98805.92;;;18.95;75.73
46642;BME280;32370;41.864;-88.124;2022-08-19T10:05:08;98803.08;;;18.86;76.00
46642;BME280;32370;41.864;-88.124;2022-08-19T10:07:36;98804.47;;;18.74;76.37
46642;BME280;32370;41.864;-88.124;2022-08-19T10:10:06;98807.19;;;18.86;76.62
46642;BME280;32370;41.864;-88.124;2022-08-19T10:12:35;98809.43;;;18.90;76.38
46642;BME280;32370;41.864;-88.124;2022-08-19T10:15:04;98810.63;;;18.82;76.39
46642;BME280;32370;41.864;-88.124;2022-08-19T10:17:33;98808.43;;;18.85;76.26
46642;BME280;32370;41.864;-88.124;2022-08-19T10:20:02;98811.31;;;18.71;76.50
46642;BME280;32370;41.864;-88.124;2022-08-19T10:22:30;98810.73;;;18.33;77.10
46642;BME280;32370;41.864;-88.124;2022-08-19T10:24:58;98811.59;;;18.51;76.30
46642;BME280;32370;41.864;-88.124;2022-08-19T10:27:27;98815.49;;;18.81;75.73
46642;BME280;32370;41.864;-88.124;2022-08-19T10:29:55;98819.21;;;18.75;75.71
46642;BME280;32370;41.864;-88.124;2022-08-19T10:32:22;98818.81;;;18.48;75.91
46642;BME280;32370;41.864;-88.124;2022-08-19T10:34:50;98818.15;;;18.61;76.48
46642;BME280;32370;41.864;-88.124;2022-08-19T10:37:18;98817.48;;;18.68;76.27
46642;BME280;32370;41.864;-88.124;2022-08-19T10:39:46;98822.76;;;18.49;76.99
46642;BME280;32370;41.864;-88.124;2022-08-19T10:42:14;98822.07;;;18.24;78.28
46642;BME280;32370;41.864;-88.124;2022-08-19T10:44:42;98821.40;;;18.43;77.35
46642;BME280;32370;41.864;-88.124;2022-08-19T10:47:10;98826.71;;;18.28;77.34
46642;BME280;32370;41.864;-88.124;2022-08-19T10:49:38;98828.16;;;17.88;78.05
46642;BME280;32370;41.864;-88.124;2022-08-19T10:52:06;98826.65;;;18.14;77.76
46642;BME280;32370;41.864;-88.124;2022-08-19T10:54:34;98825.93;;;18.12;77.91
46642;BME280;32370;41.864;-88.124;2022-08-19T10:57:02;98821.46;;;17.99;78.60
46642;BME280;32370;41.864;-88.124;2022-08-19T10:59:30;98819.23;;;17.72;78.95
46642;BME280;32370;41.864;-88.124;2022-08-19T11:02:00;98813.98;;;18.01;78.69
46642;BME280;32370;41.864;-88.124;2022-08-19T11:04:29;98811.29;;;17.95;79.03
46642;BME280;32370;41.864;-88.124;2022-08-19T11:06:57;98809.91;;;18.18;79.28
46642;BME280;32370;41.864;-88.124;2022-08-19T11:09:26;98808.47;;;17.93;79.28
46642;BME280;32370;41.864;-88.124;2022-08-19T11:11:54;98807.43;;;17.94;79.27
46642;BME280;32370;41.864;-88.124;2022-08-19T11:14:24;98810.45;;;17.97;79.18
46642;BME280;32370;41.864;-88.124;2022-08-19T11:16:52;98809.17;;;18.25;79.19
46642;BME280;32370;41.864;-88.124;2022-08-19T11:19:21;98808.04;;;17.93;79.52
46642;BME280;32370;41.864;-88.124;2022-08-19T11:21:51;98810.29;;;17.89;79.72
46642;BME280;32370;41.864;-88.124;2022-08-19T11:24:22;98811.57;;;17.98;79.50
46642;BME280;32370;41.864;-88.124;2022-08-19T11:26:52;98809.60;;;18.33;79.11
46642;BME280;32370;41.864;-88.124;2022-08-19T11:29:21;98803.58;;;18.12;78.89
46642;BME280;32370;41.864;-88.124;2022-08-19T11:31:49;98804.85;;;18.10;78.98
46642;BME280;32370;41.864;-88.124;2022-08-19T11:34:19;98801.06;;;17.92;78.91
46642;BME280;32370;41.864;-88.124;2022-08-19T11:36:49;98804.35;;;18.14;79.01
46642;BME280;32370;41.864;-88.124;2022-08-19T11:39:20;98807.76;;;17.98;78.91
46642;BME280;32370;41.864;-88.124;2022-08-19T11:41:50;98812.95;;;18.32;78.70
46642;BME280;32370;41.864;-88.124;2022-08-19T11:44:18;98814.90;;;18.33;78.68
46642;BME280;32370;41.864;-88.124;2022-08-19T11:46:46;98818.35;;;18.35;78.85
46642;BME280;32370;41.864;-88.124;2022-08-19T11:49:16;98825.45;;;18.41;78.94
46642;BME280;32370;41.864;-88.124;2022-08-19T11:51:44;98829.27;;;18.41;79.17
46642;BME280;32370;41.864;-88.124;2022-08-19T11:54:13;98828.74;;;18.59;78.89
46642;BME280;32370;41.864;-88.124;2022-08-19T11:56:42;98827.98;;;18.62;78.81
46642;BME280;32370;41.864;-88.124;2022-08-19T11:59:10;98824.95;;;18.77;78.48
46642;BME280;32370;41.864;-88.124;2022-08-19T12:01:38;98824.47;;;18.59;78.42
46642;BME280;32370;41.864;-88.124;2022-08-19T12:04:06;98823.32;;;18.85;78.44
46642;BME280;32370;41.864;-88.124;2022-08-19T12:06:33;98822.49;;;18.92;78.34
46642;BME280;32370;41.864;-88.124;2022-08-19T12:09:06;98817.91;;;18.88;78.14
46642;BME280;32370;41.864;-88.124;2022-08-19T12:11:34;98815.50;;;19.06;78.35
46642;BME280;32370;41.864;-88.124;2022-08-19T12:14:03;98813.69;;;19.14;78.37
46642;BME280;32370;41.864;-88.124;2022-08-19T12:16:31;98817.01;;;19.25;78.14
46642;BME280;32370;41.864;-88.124;2022-08-19T12:19:00;98811.63;;;19.35;77.94
46642;BME280;32370;41.864;-88.124;2022-08-19T12:21:28;98808.85;;;19.47;77.72
46642;BME280;32370;41.864;-88.124;2022-08-19T12:23:58;98810.16;;;19.45;77.99
46642;BME280;32370;41.864;-88.124;2022-08-19T12:26:29;98814.62;;;19.61;77.76
46642;BME280;32370;41.864;-88.124;2022-08-19T12:28:57;98814.90;;;19.80;77.53
46642;BME280;32370;41.864;-88.124;2022-08-19T12:31:26;98814.80;;;19.36;77.60
46642;BME280;32370;41.864;-88.124;2022-08-19T12:33:54;98817.24;;;19.77;77.22
46642;BME280;32370;41.864;-88.124;2022-08-19T12:36:23;98821.30;;;20.12;77.31
46642;BME280;32370;41.864;-88.124;2022-08-19T12:38:51;98828.66;;;20.00;76.94
46642;BME280;32370;41.864;-88.124;2022-08-19T12:41:20;98830.99;;;20.26;76.76
46642;BME280;32370;41.864;-88.124;2022-08-19T12:43:48;98834.30;;;20.56;75.71
46642;BME280;32370;41.864;-88.124;2022-08-19T12:46:18;98831.68;;;20.74;75.01
46642;BME280;32370;41.864;-88.124;2022-08-19T12:48:53;98829.33;;;20.89;74.84
46642;BME280;32370;41.864;-88.124;2022-08-19T12:51:21;98834.08;;;20.76;74.61
46642;BME280;32370;41.864;-88.124;2022-08-19T12:53:49;98834.41;;;20.97;74.09
46642;BME280;32370;41.864;-88.124;2022-08-19T12:56:17;98834.99;;;21.05;73.23
46642;BME280;32370;41.864;-88.124;2022-08-19T13:34:29;98868.22;;;25.27;60.95
46642;BME280;32370;41.864;-88.124;2022-08-19T13:36:56;98864.12;;;23.82;59.92
46642;BME280;32370;41.864;-88.124;2022-08-19T13:39:24;98867.57;;;23.33;58.71
46642;BME280;32370;41.864;-88.124;2022-08-19T13:41:51;98865.11;;;23.72;57.37
46642;BME280;32370;41.864;-88.124;2022-08-19T13:44:19;98860.25;;;24.81;56.20
46642;BME280;32370;41.864;-88.124;2022-08-19T13:46:48;98863.34;;;25.87;55.04
46642;BME280;32370;41.864;-88.124;2022-08-19T13:49:16;98869.81;;;25.47;55.12
46642;BME280;32370;41.864;-88.124;2022-08-19T13:51:44;98868.61;;;25.95;54.60
46642;BME280;32370;41.864;-88.124;2022-08-19T13:54:12;98863.00;;;26.47;53.93
46642;BME280;32370;41.864;-88.124;2022-08-19T13:56:42;98865.87;;;26.81;52.48
46642;BME280;32370;41.864;-88.124;2022-08-19T13:59:10;98863.61;;;26.86;52.84
46642;BME280;32370;41.864;-88.124;2022-08-19T14:01:38;98870.02;;;27.44;52.26
46642;BME280;32370;41.864;-88.124;2022-08-19T14:04:07;98864.12;;;27.43;50.42
46642;BME280;32370;41.864;-88.124;2022-08-19T14:06:35;98865.95;;;27.73;50.93
46642;BME280;32370;41.864;-88.124;2022-08-19T14:09:03;98864.48;;;27.81;50.51
46642;BME280;32370;41.864;-88.124;2022-08-19T14:11:31;98870.03;;;28.08;50.02
46642;BME280;32370;41.864;-88.124;2022-08-19T14:13:58;98870.89;;;27.96;49.91
46642;BME280;32370;41.864;-88.124;2022-08-19T14:16:26;98872.85;;;28.38;48.68
46642;BME280;32370;41.864;-88.124;2022-08-19T14:18:54;98877.15;;;28.13;48.83
46642;BME280;32370;41.864;-88.124;2022-08-19T14:21:23;98875.27;;;27.63;48.92
46642;BME280;32370;41.864;-88.124;2022-08-19T14:23:52;98874.15;;;27.68;49.45
46642;BME280;32370;41.864;-88.124;2022-08-19T14:26:22;98877.02;;;27.18;50.56
46642;BME280;32370;41.864;-88.124;2022-08-19T14:28:50;98876.27;;;27.24;50.31
46642;BME280;32370;41.864;-88.124;2022-08-19T14:31:18;98874.99;;;27.22;49.68
46642;BME280;32370;41.864;-88.124;2022-08-19T14:33:47;98875.98;;;27.99;49.56
46642;BME280;32370;41.864;-88.124;2022-08-19T14:36:16;98874.87;;;28.01;48.97
46642;BME280;32370;41.864;-88.124;2022-08-19T14:38:44;98874.64;;;28.79;47.72
46642;BME280;32370;41.864;-88.124;2022-08-19T14:41:14;98875.53;;;28.55;47.00
46642;BME280;32370;41.864;-88.124;2022-08-19T14:43:42;98876.36;;;28.73;47.29
46642;BME280;32370;41.864;-88.124;2022-08-19T14:46:10;98876.07;;;28.55;46.18
46642;BME280;32370;41.864;-88.124;2022-08-19T14:48:39;98879.63;;;28.61;46.09
46642;BME280;32370;41.864;-88.124;2022-08-19T14:51:07;98876.78;;;29.17;45.75
46642;BME280;32370;41.864;-88.124;2022-08-19T14:53:35;98879.20;;;29.38;45.51
46642;BME280;32370;41.864;-88.124;2022-08-19T14:56:08;98879.63;;;29.42;45.67
46642;BME280;32370;41.864;-88.124;2022-08-19T14:58:36;98880.64;;;28.91;46.00
46642;BME280;32370;41.864;-88.124;2022-08-19T15:01:04;98884.18;;;29.03;44.61
46642;BME280;32370;41.864;-88.124;2022-08-19T15:03:32;98878.21;;;29.28;44.73
46642;BME280;32370;41.864;-88.124;2022-08-19T15:06:01;98879.06;;;29.04;45.15
46642;BME280;32370;41.864;-88.124;2022-08-19T15:08:31;98881.50;;;29.44;43.82
46642;BME280;32370;41.864;-88.124;2022-08-19T15:10:59;98885.14;;;29.07;43.11
46642;BME280;32370;41.864;-88.124;2022-08-19T15:13:28;98891.09;;;29.13;44.26
46642;BME280;32370;41.864;-88.124;2022-08-19T15:15:57;98887.19;;;28.55;43.87
46642;BME280;32370;41.864;-88.124;2022-08-19T15:18:25;98887.41;;;29.04;44.24
46642;BME280;32370;41.864;-88.124;2022-08-19T15:20:53;98880.67;;;29.52;43.22
46642;BME280;32370;41.864;-88.124;2022-08-19T15:23:21;98869.36;;;29.69;42.93
46642;BME280;32370;41.864;-88.124;2022-08-19T15:25:49;98878.51;;;29.53;43.22
46642;BME280;32370;41.864;-88.124;2022-08-19T15:28:17;98877.63;;;30.10;42.30
46642;BME280;32370;41.864;-88.124;2022-08-19T15:30:45;98876.61;;;29.77;41.95
46642;BME280;32370;41.864;-88.124;2022-08-19T15:33:13;98875.36;;;29.72;40.98
46642;BME280;32370;41.864;-88.124;2022-08-19T15:35:41;98873.05;;;29.59;41.29
46642;BME280;32370;41.864;-88.124;2022-08-19T15:38:11;98875.35;;;29.88;40.03
46642;BME280;32370;41.864;-88.124;2022-08-19T15:40:43;98876.74;;;30.62;39.42
46642;BME280;32370;41.864;-88.124;2022-08-19T15:43:10;98871.57;;;30.85;38.54
46642;BME280;32370;41.864;-88.124;2022-08-19T15:45:38;98871.17;;;30.86;38.49
46642;BME280;32370;41.864;-88.124;2022-08-19T15:48:06;98869.21;;;30.91;38.25
46642;BME280;32370;41.864;-88.124;2022-08-19T15:50:35;98866.43;;;30.88;38.13
46642;BME280;32370;41.864;-88.124;2022-08-19T15:53:06;98864.66;;;30.96;39.01
46642;BME280;32370;41.864;-88.124;2022-08-19T15:55:36;98861.60;;;30.98;37.09
46642;BME280;32370;41.864;-88.124;2022-08-19T15:58:06;98853.62;;;31.11;37.50
46642;BME280;32370;41.864;-88.124;2022-08-19T16:00:34;98851.19;;;30.72;39.02
46642;BME280;32370;41.864;-88.124;2022-08-19T16:03:02;98846.75;;;30.34;39.03